CheckWX is a tool to help pilots better visualize weather data.  It is not intended as a substitute for an official pre-flight weather briefing.

06:43:49 UTC

CYBG TAF
CFB Bagotville Airport
Bagotville, Canada
TAF CYBG 160530Z 1606/1706 24005KT P6SM BKN060 FM161500 27008G18KT P6SM BKN030 FM170000 27006KT P6SM FEW040 RMK NXT FCST BY 161200Z

Jun-16@
06:00 UTC

Jun-16 @ 06:00 UTC

Jun-16@
15:00 UTC

Jun-16 @ 15:00 UTC

TAF CYBG 160530Z 1606/1706 24005KT P6SM BKN060
Wind
  • 240° at 5 KTS
Cloud Levels
  • Broken at 6,000' AGL

Jun-16@
15:00 UTC

Jun-16 @ 15:00 UTC

Jun-17@
00:00 UTC

Jun-17 @ 00:00 UTC

FM161500 27008G18KT P6SM BKN030

From

From Standard forecast or significant change

Wind
  • 270° at 8 KTS
  • {Gusting to 18 KTS
Cloud Levels
  • Broken at 3,000' AGL

Jun-17@
00:00 UTC

Jun-17 @ 00:00 UTC

Jun-17@
06:00 UTC

Jun-17 @ 06:00 UTC

FM170000 27006KT P6SM FEW040 RMK NXT FCST BY 161200Z

From

From Standard forecast or significant change

Wind
  • 270° at 6 KTS
Cloud Levels
  • Few at 4,000' AGL